Time;durP1;ratioP1;P1;durP2;ratioP2;P2;SDS_P1;SDS_P2;PMS_P1;PMS_P2;Temp;Humidity;BMP_temperature;BMP_pressure;BME280_temperature;BME280_humidity;BME280_pressure;Samples;Min_cycle;Max_cycle;Signal;HPM_P1;HPM_P2
2023/11/19 00:00:43;;;;;;;24.00;9.35;;;;;;;-3.48;54.41;100732.28;5034830;28;20028;-63
2023/11/19 00:03:09;;;;;;;15.95;7.90;;;;;;;-3.73;53.95;100690.59;5032537;28;20029;-63
2023/11/19 00:05:35;;;;;;;23.00;8.38;;;;;;;-3.54;54.58;100719.25;5032351;28;20429;-63
2023/11/19 00:08:02;;;;;;;20.00;8.70;;;;;;;-3.87;54.10;100668.88;5033133;28;20048;-63
2023/11/19 00:10:27;;;;;;;23.17;8.18;;;;;;;-3.63;54.64;100726.28;5043984;28;20039;-64
2023/11/19 00:12:53;;;;;;;17.65;8.32;;;;;;;-3.74;54.56;100722.88;5052412;28;20032;-63
2023/11/19 00:15:18;;;;;;;21.33;8.98;;;;;;;-3.84;54.58;100710.75;5050835;28;20069;-64
2023/11/19 00:17:46;;;;;;;19.58;8.25;;;;;;;-3.97;54.88;100723.03;5034704;28;20033;-63
2023/11/19 00:20:13;;;;;;;16.17;7.90;;;;;;;-4.13;55.29;100707.44;5033258;28;20025;-63
2023/11/19 00:22:39;;;;;;;23.30;9.15;;;;;;;-4.36;55.71;100703.19;5051701;28;20371;-62
2023/11/19 00:25:06;;;;;;;15.73;7.88;;;;;;;-4.52;56.38;100712.84;5052386;28;20041;-63
2023/11/19 00:27:32;;;;;;;18.10;8.32;;;;;;;-4.67;56.50;100715.50;5052073;28;20033;-62
2023/11/19 00:29:58;;;;;;;18.15;8.55;;;;;;;-4.83;57.16;100718.16;5049822;28;20047;-63
2023/11/19 00:32:24;;;;;;;16.48;8.13;;;;;;;-5.29;57.61;100658.25;5052461;28;20079;-62
2023/11/19 00:34:49;;;;;;;21.98;8.82;;;;;;;-5.41;57.68;100666.97;5035393;28;20032;-63
2023/11/19 00:37:15;;;;;;;18.88;8.57;;;;;;;-5.20;58.05;100713.03;5051137;28;20032;-64
2023/11/19 00:39:41;;;;;;;24.98;8.45;;;;;;;-5.23;58.31;100713.03;5032093;28;20062;-63
2023/11/19 00:42:07;;;;;;;20.10;8.57;;;;;;;-5.29;58.41;100700.84;5046936;28;20403;-64
2023/11/19 00:44:33;;;;;;;20.73;7.90;;;;;;;-5.36;58.28;100693.91;5052871;28;20044;-64
2023/11/19 00:47:00;;;;;;;17.88;8.75;;;;;;;-5.63;58.17;100649.56;5037752;28;20117;-63
2023/11/19 00:49:26;;;;;;;20.90;8.40;;;;;;;-5.34;58.83;100711.28;5015108;28;20043;-64
2023/11/19 00:51:51;;;;;;;15.07;8.13;;;;;;;-5.69;58.44;100654.78;5032872;28;20364;-64
2023/11/19 00:54:17;;;;;;;18.50;8.50;;;;;;;-5.48;58.51;100687.81;5032317;28;20037;-64
2023/11/19 00:56:43;;;;;;;20.85;8.48;;;;;;;-5.46;58.69;100693.06;5031648;28;20045;-62
2023/11/19 00:59:08;;;;;;;24.27;8.57;;;;;;;-5.70;58.77;100660.88;5031865;28;20029;-63
2023/11/19 01:01:34;;;;;;;19.25;9.13;;;;;;;-5.76;58.77;100653.06;5031667;28;20113;-63
2023/11/19 01:04:00;;;;;;;19.10;8.73;;;;;;;-5.62;58.96;100697.41;5038849;28;20129;-63
2023/11/19 01:06:29;;;;;;;20.48;8.27;;;;;;;-5.64;59.21;100679.13;5052300;28;20421;-62
2023/11/19 01:08:56;;;;;;;21.52;9.27;;;;;;;-6.03;59.46;100644.34;5051409;28;20454;-63
2023/11/19 01:11:23;;;;;;;18.83;8.18;;;;;;;-5.73;59.67;100683.47;5052520;28;20091;-63
2023/11/19 01:13:49;;;;;;;21.15;9.18;;;;;;;-5.76;59.84;100681.75;5050908;28;20035;-64
2023/11/19 01:16:15;;;;;;;21.58;9.40;;;;;;;-5.81;59.59;100675.63;5051612;28;20098;-63
2023/11/19 01:18:41;;;;;;;23.17;9.07;;;;;;;-5.85;59.66;100681.72;5049861;28;20077;-63
2023/11/19 01:21:07;;;;;;;19.58;8.45;;;;;;;-5.87;60.21;100673.03;5035291;28;20092;-63
2023/11/19 01:23:33;;;;;;;18.73;8.50;;;;;;;-5.95;60.20;100676.50;5032008;28;20034;-62
2023/11/19 01:25:59;;;;;;;20.50;8.30;;;;;;;-5.94;60.27;100666.94;5032454;28;20068;-62
2023/11/19 01:28:24;;;;;;;15.77;8.20;;;;;;;-6.27;60.37;100617.44;5036419;28;20368;-64
2023/11/19 01:30:54;;;;;;;20.90;8.57;;;;;;;-6.03;60.54;100652.19;5051225;28;20037;-64
2023/11/19 01:33:20;;;;;;;15.15;7.63;;;;;;;-6.03;60.40;100657.41;5033227;28;20048;-64
2023/11/19 01:35:45;;;;;;;21.08;8.60;;;;;;;-6.07;60.55;100653.94;5036001;28;20049;-62
2023/11/19 01:38:11;;;;;;;22.73;8.68;;;;;;;-6.13;60.31;100634.81;5014900;28;20026;-62
2023/11/19 01:40:37;;;;;;;19.08;8.30;;;;;;;-6.09;60.51;100653.06;5034821;28;20037;-63
2023/11/19 01:43:03;;;;;;;18.92;8.27;;;;;;;-6.11;60.30;100653.91;5034829;28;20033;-64
2023/11/19 01:45:30;;;;;;;19.70;8.57;;;;;;;-6.11;60.70;100660.03;5035758;28;20112;-64
2023/11/19 01:48:05;;;;;;;15.98;8.38;;;;;;;-6.15;61.17;100646.97;5036116;28;20029;-64
2023/11/19 01:50:33;;;;;;;18.42;9.18;;;;;;;-6.44;60.65;100606.09;5039473;28;20516;-62
2023/11/19 01:52:59;;;;;;;21.88;8.73;;;;;;;-6.15;60.97;100660.00;5036537;28;20116;-63
2023/11/19 01:55:28;;;;;;;18.90;8.95;;;;;;;-6.40;61.13;100610.44;5034816;28;20045;-64
2023/11/19 01:57:59;;;;;;;19.92;8.77;;;;;;;-6.14;61.17;100659.13;5040692;28;20436;-63
2023/11/19 02:00:25;;;;;;;18.83;8.52;;;;;;;-6.20;60.96;100647.84;5054620;28;20029;-65
2023/11/19 02:02:52;;;;;;;19.75;9.02;;;;;;;-6.15;60.97;100654.78;5054634;28;20033;-63
2023/11/19 02:05:18;;;;;;;20.23;9.95;;;;;;;-6.26;60.95;100637.41;5054764;28;20032;-62
2023/11/19 02:07:44;;;;;;;22.20;9.43;;;;;;;-6.20;61.21;100654.78;5052471;28;20341;-63
2023/11/19 02:10:14;;;;;;;17.75;9.15;;;;;;;-6.26;61.26;100645.22;5037341;28;20044;-62
2023/11/19 02:12:44;;;;;;;16.42;9.00;;;;;;;-6.28;61.54;100648.69;5034302;28;20025;-62
2023/11/19 02:15:10;;;;;;;19.25;9.18;;;;;;;-6.25;61.37;100651.28;5035212;28;20037;-62
2023/11/19 02:17:37;;;;;;;22.42;9.68;;;;;;;-6.33;61.77;100642.59;5034350;28;20029;-64
2023/11/19 02:20:11;;;;;;;23.70;9.45;;;;;;;-6.27;61.96;100653.91;5035061;28;20057;-64
2023/11/19 02:22:37;;;;;;;22.93;10.33;;;;;;;-6.30;61.96;100650.44;5036507;28;20033;-64
2023/11/19 02:25:29;;;;;;;24.33;9.88;;;;;;;-6.26;61.77;100653.06;5033760;28;20179;-62
2023/11/19 02:28:00;;;;;;;22.67;8.95;;;;;;;-6.27;61.96;100653.03;5033886;28;20119;-64
2023/11/19 02:30:27;;;;;;;24.90;9.85;;;;;;;-6.29;61.99;100653.00;5035201;28;20033;-63
2023/11/19 02:32:58;;;;;;;23.25;10.60;;;;;;;-6.44;62.44;100630.41;5033978;28;20474;-63
2023/11/19 02:35:27;;;;;;;20.75;10.32;;;;;;;-6.30;62.33;100650.44;5047260;28;20128;-63
2023/11/19 02:37:56;;;;;;;18.02;9.13;;;;;;;-6.26;62.43;100644.34;5037853;28;20128;-63
2023/11/19 02:40:24;;;;;;;17.80;9.57;;;;;;;-6.18;62.35;100652.19;5054008;28;20036;-62
2023/11/19 02:42:51;;;;;;;26.70;9.68;;;;;;;-6.13;61.88;100647.84;5053887;28;20622;-63
2023/11/19 02:45:17;;;;;;;23.85;9.90;;;;;;;-6.08;62.26;100643.50;5054235;28;20120;-64
2023/11/19 02:47:44;;;;;;;21.63;10.40;;;;;;;-6.03;62.32;100639.16;5052207;28;20134;-65
2023/11/19 02:50:14;;;;;;;20.17;9.93;;;;;;;-6.14;61.74;100599.19;5036692;28;20031;-63
2023/11/19 02:52:45;;;;;;;25.15;10.15;;;;;;;-6.02;61.87;100599.19;5035995;28;20064;-63
2023/11/19 02:55:14;;;;;;;22.45;9.15;;;;;;;-5.63;61.11;100644.34;5021076;28;20447;-62
2023/11/19 02:57:50;;;;;;;20.92;9.32;;;;;;;-5.51;61.19;100645.22;5053239;28;20100;-63
2023/11/19 03:00:16;;;;;;;;;;;;;;;-5.17;60.73;100636.47;5054651;28;20025;-62
2023/11/19 03:02:48;;;;;;;19.08;9.05;;;;;;;-5.44;60.32;100597.34;5051697;28;20007;-64
2023/11/19 03:05:14;;;;;;;17.88;9.48;;;;;;;-5.16;59.73;100635.59;5053713;28;20341;-63
2023/11/19 03:07:44;;;;;;;21.85;10.98;;;;;;;-5.14;59.74;100626.84;5053993;28;20041;-62
2023/11/19 03:10:13;;;;;;;25.75;11.38;;;;;;;-5.13;59.78;100625.97;5053303;28;20186;-63
2023/11/19 03:12:40;;;;;;;30.20;13.05;;;;;;;-5.02;59.26;100627.69;5051832;28;20410;-63
2023/11/19 03:15:07;;;;;;;33.28;13.38;;;;;;;-4.97;59.52;100618.09;5053456;28;20029;-63
2023/11/19 03:17:33;;;;;;;36.75;16.63;;;;;;;-4.88;58.96;100630.25;5054141;28;20071;-63
2023/11/19 03:20:01;;;;;;;38.25;16.58;;;;;;;-4.83;58.75;100623.25;5053104;28;20032;-62
2023/11/19 03:22:26;;;;;;;35.30;15.82;;;;;;;-4.74;58.41;100627.59;5054162;28;20056;-64
2023/11/19 03:24:52;;;;;;;37.28;16.17;;;;;;;-4.92;57.98;100577.16;5036607;28;20360;-63
2023/11/19 03:27:18;;;;;;;37.80;17.00;;;;;;;-4.62;58.13;100622.28;5052004;28;20037;-62
2023/11/19 03:29:43;;;;;;;43.95;17.58;;;;;;;-4.57;57.84;100609.19;5053839;28;20359;-62
2023/11/19 03:32:09;;;;;;;40.58;16.23;;;;;;;-4.44;57.59;100620.44;5054018;28;20103;-63
2023/11/19 03:34:34;;;;;;;45.28;17.98;;;;;;;-4.35;57.18;100623.88;5044127;28;20038;-63
2023/11/19 03:37:00;;;;;;;47.22;18.13;;;;;;;-4.27;57.66;100622.94;5033749;28;20045;-63
2023/11/19 03:39:27;;;;;;;39.90;17.48;;;;;;;-4.22;57.03;100621.16;5033812;28;20433;-64
2023/11/19 03:41:52;;;;;;;40.42;17.20;;;;;;;-4.18;56.25;100628.13;5034358;28;20029;-62
2023/11/19 03:44:19;;;;;;;38.67;17.35;;;;;;;-4.22;55.95;100603.75;5050479;28;20048;-63
2023/11/19 03:46:44;;;;;;;38.72;17.17;;;;;;;-4.11;56.23;100611.53;5053633;28;20021;-63
2023/11/19 03:49:10;;;;;;;42.58;18.17;;;;;;;-4.07;55.65;100602.75;5053235;28;20048;-63
2023/11/19 03:51:35;;;;;;;38.03;16.65;;;;;;;-4.09;55.70;100601.06;5052483;28;20032;-62
2023/11/19 03:54:01;;;;;;;42.30;17.15;;;;;;;-4.13;56.22;100589.75;5036076;28;20041;-64
2023/11/19 03:56:27;;;;;;;33.00;15.15;;;;;;;-3.97;55.76;100600.94;5050973;28;20029;-63
2023/11/19 03:58:53;;;;;;;32.70;14.48;;;;;;;-3.98;55.71;100591.38;5036852;28;20036;-63
2023/11/19 04:01:18;;;;;;;29.85;13.10;;;;;;;-3.92;55.62;100601.78;5033466;28;20352;-63
2023/11/19 04:03:44;;;;;;;35.72;14.10;;;;;;;-3.93;55.22;100599.19;5032013;28;20112;-63
2023/11/19 04:06:10;;;;;;;29.27;13.90;;;;;;;-3.95;55.42;100585.25;5032262;28;20121;-64
2023/11/19 04:08:35;;;;;;;38.67;14.10;;;;;;;-3.92;55.56;100588.69;5033067;28;20025;-63
2023/11/19 04:11:03;;;;;;;25.83;11.82;;;;;;;-3.90;54.78;100581.69;5033084;28;20021;-63
2023/11/19 04:13:29;;;;;;;22.38;10.75;;;;;;;-3.96;55.24;100568.66;5051857;28;20402;-62
2023/11/19 04:15:54;;;;;;;21.80;10.07;;;;;;;-3.98;54.45;100564.31;5033230;28;20033;-63
2023/11/19 04:18:20;;;;;;;24.30;11.05;;;;;;;-3.97;54.95;100550.38;5032355;28;20033;-63
2023/11/19 04:20:46;;;;;;;27.73;11.43;;;;;;;-3.97;54.37;100556.47;5015312;28;20029;-64
2023/11/19 04:23:11;;;;;;;18.75;9.63;;;;;;;-3.97;54.53;100548.63;5039093;28;20471;-65
2023/11/19 04:25:37;;;;;;;20.77;10.15;;;;;;;-4.02;54.18;100558.28;5053013;28;20494;-63
2023/11/19 04:28:03;;;;;;;22.15;9.57;;;;;;;-4.09;54.86;100535.69;5051111;28;20057;-64
2023/11/19 04:30:28;;;;;;;24.02;8.88;;;;;;;-4.08;54.07;100556.56;5051979;28;20040;-64
2023/11/19 04:32:54;;;;;;;22.08;9.23;;;;;;;-4.02;54.57;100553.03;5035562;28;20116;-64
2023/11/19 04:35:21;;;;;;;16.38;9.40;;;;;;;-4.01;53.96;100544.31;5035072;28;20087;-64
2023/11/19 04:37:47;;;;;;;18.27;9.90;;;;;;;-3.96;54.43;100550.34;5034885;28;20523;-62
2023/11/19 04:40:13;;;;;;;18.40;9.60;;;;;;;-3.86;53.95;100545.91;5051685;28;20415;-62
2023/11/19 04:42:41;;;;;;;19.58;9.20;;;;;;;-3.83;53.95;100555.50;5038879;28;20049;-63
2023/11/19 04:45:10;;;;;;;18.98;10.10;;;;;;;-3.79;53.73;100559.81;5031411;28;20029;-63
2023/11/19 04:47:36;;;;;;;19.15;9.25;;;;;;;-3.67;53.53;100566.69;5032499;28;20094;-63
2023/11/19 04:50:03;;;;;;;23.42;10.80;;;;;;;-3.62;54.30;100570.09;5020068;28;20033;-63
2023/11/19 04:52:30;;;;;;;27.67;11.50;;;;;;;-3.57;54.99;100577.94;5051860;28;20033;-62
2023/11/19 04:54:55;;;;;;;26.67;11.68;;;;;;;-3.61;55.44;100571.84;5051286;28;20025;-63
2023/11/19 04:57:21;;;;;;;21.35;11.93;;;;;;;-3.58;55.74;100565.72;5021130;28;20044;-65
2023/11/19 04:59:46;;;;;;;23.83;11.50;;;;;;;-3.58;55.40;100560.47;5032735;28;20048;-62
2023/11/19 05:02:12;;;;;;;21.85;11.60;;;;;;;-3.83;55.73;100532.78;5031525;28;20030;-63
2023/11/19 05:04:44;;;;;;;21.25;10.95;;;;;;;-3.59;56.34;100570.06;5030976;28;20475;-62
2023/11/19 05:07:09;;;;;;;24.80;12.20;;;;;;;-3.62;56.51;100562.25;5032481;28;20120;-62
2023/11/19 05:09:35;;;;;;;29.52;11.88;;;;;;;-3.57;56.20;100557.84;5031622;28;20540;-64
2023/11/19 05:12:02;;;;;;;22.95;11.35;;;;;;;-3.58;55.99;100560.47;5044421;28;20029;-61
2023/11/19 05:14:28;;;;;;;21.88;11.20;;;;;;;-3.49;55.94;100565.59;5052240;28;20040;-63
2023/11/19 05:16:53;;;;;;;24.52;11.25;;;;;;;-3.40;55.56;100575.13;5036251;28;20428;-65
2023/11/19 05:19:19;;;;;;;27.55;12.35;;;;;;;-3.48;56.02;100573.47;5037454;28;20079;-66
2023/11/19 05:21:45;;;;;;;23.92;10.93;;;;;;;-3.66;55.93;100537.00;5056508;28;20056;-63
2023/11/19 05:24:11;;;;;;;23.58;11.05;;;;;;;-3.48;55.88;100577.81;5055041;28;20094;-62
2023/11/19 05:26:38;;;;;;;26.30;12.38;;;;;;;-3.43;55.25;100570.78;5043168;28;20133;-63
2023/11/19 05:29:04;;;;;;;22.90;10.50;;;;;;;-3.34;55.33;100581.16;5036425;28;20139;-63
2023/11/19 05:31:30;;;;;;;23.45;10.85;;;;;;;-3.34;54.78;100582.91;5035508;28;20363;-59
2023/11/19 05:33:55;;;;;;;27.90;12.10;;;;;;;-3.30;55.53;100581.13;5035244;28;20029;-63
2023/11/19 05:36:21;;;;;;;20.35;11.20;;;;;;;-3.34;55.60;100572.44;5047038;28;20372;-61
2023/11/19 05:38:47;;;;;;;20.35;11.18;;;;;;;-3.36;54.94;100585.56;5044600;28;20088;-62
2023/11/19 05:41:12;;;;;;;20.23;11.52;;;;;;;-3.45;55.15;100569.94;5044699;28;20373;-61
2023/11/19 05:43:40;;;;;;;35.88;11.55;;;;;;;-3.37;55.47;100578.59;5044294;28;20415;-62
2023/11/19 05:46:06;;;;;;;23.30;12.25;;;;;;;-3.37;55.23;100578.59;5046292;28;20055;-61
2023/11/19 05:48:32;;;;;;;24.63;12.30;;;;;;;-3.37;55.04;100591.69;5044966;28;20021;-61
2023/11/19 05:50:58;;;;;;;23.75;12.27;;;;;;;-3.43;55.47;100576.00;5045202;28;20043;-61
2023/11/19 05:53:24;;;;;;;26.88;12.13;;;;;;;-3.36;55.74;100587.28;5044695;28;20117;-62
2023/11/19 05:55:55;;;;;;;22.20;11.75;;;;;;;-3.40;55.39;100577.75;5041562;28;20112;-63
2023/11/19 05:58:28;;;;;;;25.17;11.75;;;;;;;-3.33;55.86;100587.25;5044626;28;20033;-62
2023/11/19 06:00:55;;;;;;;27.00;12.73;;;;;;;-3.37;55.11;100575.97;5046988;28;20452;-63
2023/11/19 06:03:22;;;;;;;22.63;12.20;;;;;;;-3.37;55.01;100575.97;5046311;28;20040;-61
2023/11/19 06:05:48;;;;;;;25.60;12.05;;;;;;;-3.33;54.96;100585.50;5045923;28;20087;-64
2023/11/19 06:08:14;;;;;;;22.85;11.52;;;;;;;-3.31;55.25;100580.25;5042545;28;20029;-64
2023/11/19 06:10:46;;;;;;;29.65;13.60;;;;;;;-3.26;54.39;100588.06;5043264;28;20029;-61
2023/11/19 06:13:14;;;;;;;22.20;12.88;;;;;;;-3.49;54.96;100542.94;5040261;28;20045;-61
2023/11/19 06:15:41;;;;;;;30.42;13.05;;;;;;;-3.56;54.12;100535.16;5038984;28;20036;-62
2023/11/19 06:18:07;;;;;;;24.52;13.15;;;;;;;-3.29;54.24;100575.00;5042608;28;20037;-62
2023/11/19 06:20:34;;;;;;;25.75;13.95;;;;;;;-3.42;54.48;100572.50;5044215;28;20033;-62
2023/11/19 06:23:00;;;;;;;25.15;12.25;;;;;;;-3.43;55.17;100575.16;5043537;28;20107;-62
2023/11/19 06:25:26;;;;;;;24.88;13.15;;;;;;;-3.43;55.02;100570.78;5045391;28;20060;-61
2023/11/19 06:27:52;;;;;;;26.33;13.98;;;;;;;-3.48;54.64;100552.53;5043608;28;20025;-63
2023/11/19 06:30:19;;;;;;;25.48;14.43;;;;;;;-3.40;54.58;100568.13;5043847;28;20036;-63
2023/11/19 06:32:45;;;;;;;26.95;13.50;;;;;;;-3.37;54.03;100578.59;5044521;28;20061;-64
2023/11/19 06:35:10;;;;;;;23.98;13.75;;;;;;;-3.33;54.51;100568.91;5043034;28;20057;-62
2023/11/19 06:37:39;;;;;;;24.88;13.32;;;;;;;-3.27;54.14;100561.00;5045164;28;20036;-65
2023/11/19 06:40:05;;;;;;;31.10;13.60;;;;;;;-3.23;53.55;100553.97;5039594;28;20083;-61
2023/11/19 06:42:31;;;;;;;27.30;12.80;;;;;;;-3.25;53.72;100547.88;5044852;28;20025;-62
2023/11/19 06:44:57;;;;;;;26.17;13.38;;;;;;;-3.23;53.27;100548.72;5042103;28;20087;-62
2023/11/19 06:47:27;;;;;;;26.45;14.10;;;;;;;-3.21;53.26;100554.81;5042922;28;20037;-63
2023/11/19 06:49:53;;;;;;;24.17;13.35;;;;;;;-3.27;53.46;100547.03;5044677;28;20082;-61
2023/11/19 06:52:19;;;;;;;25.45;13.05;;;;;;;-3.28;53.73;100542.69;5043633;28;20041;-63
2023/11/19 06:54:45;;;;;;;25.95;13.38;;;;;;;-3.26;53.27;100540.91;5041685;28;20029;-64
2023/11/19 06:57:11;;;;;;;27.40;13.25;;;;;;;-3.22;52.86;100546.13;5041199;28;20091;-63
2023/11/19 06:59:37;;;;;;;29.20;13.05;;;;;;;-3.17;53.00;100551.28;5046999;28;20025;-64
2023/11/19 07:02:04;;;;;;;27.90;13.68;;;;;;;-3.23;53.27;100552.25;5048478;28;20044;-63
2023/11/19 07:04:31;;;;;;;28.15;12.82;;;;;;;-3.16;53.25;100553.00;5051300;28;20041;-63
2023/11/19 07:06:56;;;;;;;30.42;14.00;;;;;;;-3.10;52.93;100562.56;5043147;28;20212;-63
2023/11/19 07:09:23;;;;;;;24.48;13.35;;;;;;;-3.04;53.26;100558.09;5042442;28;20059;-63
2023/11/19 07:11:51;;;;;;;29.45;13.50;;;;;;;-2.99;52.90;100558.06;5043770;28;20128;-64
2023/11/19 07:14:17;;;;;;;25.15;13.68;;;;;;;-3.25;52.32;100504.25;5042264;28;20037;-65
2023/11/19 07:16:42;;;;;;;28.40;14.10;;;;;;;-2.88;51.96;100555.31;5043970;28;20025;-66
2023/11/19 07:19:09;;;;;;;34.60;14.70;;;;;;;-2.89;52.12;100550.94;5029072;28;20021;-63
2023/11/19 07:21:38;;;;;;;32.00;14.43;;;;;;;-2.80;52.41;100556.06;5042768;28;20052;-63
2023/11/19 07:24:04;;;;;;;28.45;14.23;;;;;;;-2.75;52.08;100556.00;5044237;28;20064;-65
2023/11/19 07:26:30;;;;;;;27.05;15.30;;;;;;;-2.71;51.68;100569.91;5042356;28;20077;-66
2023/11/19 07:28:56;;;;;;;30.92;14.77;;;;;;;-2.82;51.04;100562.19;5041527;28;20040;-65
2023/11/19 07:31:21;;;;;;;32.35;13.70;;;;;;;-2.88;51.45;100573.66;5044182;28;20021;-66
2023/11/19 07:33:47;;;;;;;26.42;13.95;;;;;;;-2.94;51.12;100566.72;5041826;28;20036;-66
2023/11/19 07:36:13;;;;;;;27.50;13.88;;;;;;;-2.94;51.86;100557.97;5044573;28;20037;-66
2023/11/19 07:38:39;;;;;;;28.48;12.80;;;;;;;-2.86;51.39;100555.25;5042062;28;20466;-66
2023/11/19 07:41:05;;;;;;;27.50;14.00;;;;;;;-2.82;52.28;100576.19;5043225;28;20045;-64
2023/11/19 07:43:31;;;;;;;30.77;14.95;;;;;;;-2.85;51.44;100547.38;5042271;28;20029;-66
2023/11/19 07:45:58;;;;;;;27.48;13.30;;;;;;;-2.80;51.32;100563.91;5042076;28;20021;-64
2023/11/19 07:48:25;;;;;;;29.02;13.88;;;;;;;-3.23;51.79;100501.59;5043145;28;20122;-65
2023/11/19 07:50:52;;;;;;;30.40;14.07;;;;;;;-2.90;51.48;100565.78;5041715;28;20043;-64
2023/11/19 07:53:19;;;;;;;32.47;14.20;;;;;;;-2.98;52.25;100561.53;5042594;28;20033;-66
2023/11/19 07:55:45;;;;;;;31.55;14.85;;;;;;;-3.05;52.35;100565.97;5040816;28;20036;-66
2023/11/19 07:58:12;;;;;;;29.60;14.32;;;;;;;-3.32;52.21;100532.25;5043441;28;20036;-63
2023/11/19 08:00:38;;;;;;;26.10;13.57;;;;;;;-3.15;51.97;100559.13;5045981;28;20052;-63
2023/11/19 08:03:04;;;;;;;31.67;14.10;;;;;;;-3.13;52.01;100558.22;5035437;28;20388;-62
2023/11/19 08:05:30;;;;;;;24.75;13.27;;;;;;;-3.18;52.23;100536.44;5051966;28;20822;-61
2023/11/19 08:07:56;;;;;;;27.33;13.25;;;;;;;-3.13;52.03;100549.50;5050400;28;20033;-63
2023/11/19 08:10:22;;;;;;;28.70;13.73;;;;;;;-3.01;52.15;100553.72;5033909;28;20042;-63
2023/11/19 08:12:48;;;;;;;26.48;14.00;;;;;;;-3.04;51.76;100531.91;5032690;28;20037;-63
2023/11/19 08:15:15;;;;;;;26.67;12.95;;;;;;;-3.02;52.22;100531.88;5032958;28;20095;-63
2023/11/19 08:17:41;;;;;;;31.30;13.43;;;;;;;-3.05;52.13;100540.66;5032345;28;20514;-64
2023/11/19 08:20:10;;;;;;;34.13;12.65;;;;;;;-2.99;52.47;100544.06;5041975;28;20037;-64
2023/11/19 08:22:39;;;;;;;29.23;12.70;;;;;;;-2.89;52.74;100538.69;5051150;28;20124;-63
2023/11/19 08:25:08;;;;;;;27.85;13.77;;;;;;;-2.88;52.07;100526.47;5052689;28;20459;-62
2023/11/19 08:27:34;;;;;;;26.77;12.50;;;;;;;-2.77;51.88;100527.16;5052316;28;20025;-62
2023/11/19 08:29:59;;;;;;;27.77;13.60;;;;;;;-2.68;52.11;100538.41;5051645;28;20111;-65
2023/11/19 08:32:27;;;;;;;29.23;13.93;;;;;;;-2.59;51.08;100533.03;5052328;28;20128;-64
2023/11/19 08:34:54;;;;;;;27.50;13.05;;;;;;;-2.80;51.89;100529.84;5052433;28;20079;-64
2023/11/19 08:37:20;;;;;;;26.80;13.15;;;;;;;-2.81;52.58;100524.59;5049549;28;20052;-62
2023/11/19 08:39:50;;;;;;;24.75;12.75;;;;;;;-2.92;52.12;100493.31;5035165;28;20509;-65
2023/11/19 08:42:17;;;;;;;31.05;13.55;;;;;;;-2.66;52.12;100534.00;5031655;28;20048;-63
2023/11/19 08:44:44;;;;;;;25.58;13.68;;;;;;;-2.64;51.81;100529.63;5023055;28;20035;-64
2023/11/19 08:47:11;;;;;;;23.90;14.38;;;;;;;-2.77;51.37;100511.44;5031454;28;20036;-65
2023/11/19 08:49:36;;;;;;;24.20;13.15;;;;;;;-2.77;51.84;100524.56;5031821;28;20419;-63
2023/11/19 08:52:02;;;;;;;26.90;11.48;;;;;;;-2.82;52.07;100533.34;5031789;28;20036;-63
2023/11/19 08:54:28;;;;;;;27.48;13.82;;;;;;;-2.87;52.13;100538.69;5043400;28;20051;-63
2023/11/19 08:56:53;;;;;;;27.00;13.60;;;;;;;-3.20;52.81;100489.34;5052295;28;20047;-64
2023/11/19 08:59:19;;;;;;;29.58;12.93;;;;;;;-3.09;52.55;100507.53;5027083;28;20095;-62
2023/11/19 09:01:45;;;;;;;22.85;12.20;;;;;;;-2.88;52.01;100536.97;5032445;28;20356;-63
2023/11/19 09:04:10;;;;;;;23.13;12.60;;;;;;;-3.12;51.79;100530.28;5032412;28;20124;-65
2023/11/19 09:06:36;;;;;;;25.67;12.75;;;;;;;-2.99;51.78;100529.25;5043218;28;20036;-61
2023/11/19 09:09:02;;;;;;;25.08;13.82;;;;;;;-3.03;51.97;100538.88;5049287;28;20033;-63
2023/11/19 09:11:29;;;;;;;30.52;14.73;;;;;;;-3.16;52.35;100518.94;5051152;28;20071;-62
2023/11/19 09:13:54;;;;;;;25.25;13.95;;;;;;;-3.14;52.76;100538.13;5039518;28;20056;-61
2023/11/19 09:16:20;;;;;;;22.33;13.25;;;;;;;-3.15;52.56;100530.31;5032019;28;20037;-59
2023/11/19 09:18:46;;;;;;;31.85;14.13;;;;;;;-3.13;52.56;100520.69;5031518;28;20025;-61
2023/11/19 09:21:12;;;;;;;26.08;13.20;;;;;;;-3.12;52.97;100525.91;5015624;28;20372;-62
2023/11/19 09:23:39;;;;;;;26.15;13.15;;;;;;;-3.14;52.48;100521.56;5033675;28;20037;-60
2023/11/19 09:26:05;;;;;;;29.23;12.95;;;;;;;-3.39;53.05;100488.69;5051346;28;20138;-63
2023/11/19 09:28:32;;;;;;;21.70;12.80;;;;;;;-3.25;52.66;100506.88;5041092;28;20036;-62
2023/11/19 09:30:58;;;;;;;24.70;13.07;;;;;;;-3.20;53.01;100512.91;5042272;28;20034;-63
2023/11/19 09:33:24;;;;;;;26.60;13.38;;;;;;;-3.21;52.68;100505.94;5041505;28;20083;-64
2023/11/19 09:35:50;;;;;;;25.80;13.35;;;;;;;-3.22;52.75;100495.47;5041890;28;20395;-64
2023/11/19 09:38:16;;;;;;;23.95;12.88;;;;;;;-3.25;53.25;100500.75;5040767;28;20068;-63
2023/11/19 09:40:42;;;;;;;24.70;13.07;;;;;;;-3.35;53.34;100493.03;5041053;28;20079;-63
2023/11/19 09:43:09;;;;;;;22.27;13.75;;;;;;;-3.26;53.40;100496.41;5040515;28;20026;-63
2023/11/19 09:45:51;;;;;;;27.25;12.63;;;;;;;-3.17;53.36;100468.34;5038537;28;20022;-62
2023/11/19 09:48:18;;;;;;;27.60;13.18;;;;;;;-3.21;52.87;100477.13;5039307;28;20021;-60
2023/11/19 09:50:46;;;;;;;26.05;13.25;;;;;;;-3.26;52.93;100476.28;5040752;28;20025;-60
2023/11/19 09:53:12;;;;;;;24.67;12.70;;;;;;;-3.51;52.65;100423.41;5040167;28;20059;-64
2023/11/19 09:55:38;;;;;;;21.02;12.45;;;;;;;-3.64;53.28;100418.31;5040946;28;20409;-65
2023/11/19 09:58:05;;;;;;;26.27;13.18;;;;;;;-3.31;53.49;100465.03;5039880;28;20452;-64
2023/11/19 10:00:31;;;;;;;26.50;13.30;;;;;;;-3.37;53.38;100446.78;5043875;28;20029;-62
2023/11/19 10:02:57;;;;;;;26.73;12.90;;;;;;;-3.30;53.75;100468.53;5043686;28;20436;-61
2023/11/19 10:05:24;;;;;;;26.58;12.60;;;;;;;-3.25;53.17;100462.34;5045581;28;20086;-67
2023/11/19 10:07:50;;;;;;;25.50;13.20;;;;;;;-3.17;53.23;100467.44;5044526;28;20037;-64
2023/11/19 10:10:18;;;;;;;25.23;13.40;;;;;;;-3.12;52.48;100460.44;5043160;28;20118;-61
2023/11/19 10:12:51;;;;;;;23.25;11.98;;;;;;;-3.20;52.60;100457.91;5034311;28;20036;-63
2023/11/19 10:15:23;;;;;;;21.95;11.73;;;;;;;-3.18;53.28;100447.38;5033757;28;20083;-58
2023/11/19 10:17:50;;;;;;;23.20;11.95;;;;;;;-3.20;53.03;100449.16;5033503;28;20061;-62
2023/11/19 10:20:16;;;;;;;25.63;11.80;;;;;;;-3.23;53.35;100439.63;5038569;28;20033;-64
2023/11/19 10:22:42;;;;;;;21.20;11.98;;;;;;;-3.08;52.98;100446.38;5043226;28;20095;-64
2023/11/19 10:25:43;;;;;;;21.23;11.60;;;;;;;-2.89;53.01;100443.50;5043004;28;20057;-62
2023/11/19 10:28:09;;;;;;;22.40;11.57;;;;;;;-2.94;51.57;100443.56;5025757;28;20033;-63
2023/11/19 10:30:34;;;;;;;23.60;11.57;;;;;;;-2.99;51.64;100439.28;5039038;28;20041;-64
2023/11/19 10:33:08;;;;;;;20.05;12.07;;;;;;;-3.07;51.79;100431.53;5041921;28;20467;-65
2023/11/19 10:35:34;;;;;;;24.67;12.18;;;;;;;-3.20;52.00;100423.84;5040897;28;21616;-65
2023/11/19 10:38:15;;;;;;;24.20;12.77;;;;;;;-3.13;51.93;100434.25;5042812;28;20117;-63
2023/11/19 10:40:41;;;;;;;27.38;12.90;;;;;;;-3.18;51.96;100431.66;5042855;28;20037;-65
2023/11/19 10:58:01;;;;;;;25.27;11.73;;;;;;;-3.20;51.30;100452.66;5044389;28;20056;-64
2023/11/19 11:00:30;;;;;;;20.63;11.82;;;;;;;-3.56;51.00;100399.03;5040558;28;20428;-61
2023/11/19 11:03:00;;;;;;;27.83;11.32;;;;;;;-3.69;51.53;100385.25;5040699;28;20460;-63
2023/11/19 11:05:26;;;;;;;19.17;11.25;;;;;;;-3.43;51.03;100439.88;5043372;28;20515;-62
2023/11/19 11:07:56;;;;;;;25.45;12.35;;;;;;;-3.52;51.63;100442.59;5045052;28;20116;-62
2023/11/19 11:10:26;;;;;;;22.88;12.32;;;;;;;-3.53;51.48;100439.13;5043759;28;20132;-62
2023/11/19 11:12:58;;;;;;;22.63;11.57;;;;;;;-3.55;51.48;100443.50;5041809;28;20057;-60
2023/11/19 11:15:29;;;;;;;28.15;12.32;;;;;;;-3.52;51.23;100435.59;5037391;28;20115;-59
2023/11/19 11:18:03;;;;;;;18.88;11.25;;;;;;;-3.51;51.41;100431.25;5043310;28;20036;-58
2023/11/19 11:20:31;;;;;;;19.13;10.65;;;;;;;-3.47;51.64;100430.31;5045632;28;20040;-60
2023/11/19 11:23:36;;;;;;;23.23;12.05;;;;;;;-3.26;50.95;100430.91;5045490;28;20033;-57
2023/11/19 11:26:26;;;;;;;21.55;10.85;;;;;;;-3.28;51.24;100422.22;5041975;28;20041;-58